Marshfield, Missouri
Current Conditions -  °F | °C
As of 7:52 AM on Tuesday 27 Jan 2015 (Local Time) from KSGF Reporting Station
Clear Clear  
Wind Chill: 31°   Ceiling: Unl
Heat Index: 31°   Visibility: 10mi
Dew Point: 27°   Wind: 0mph
Humidity: 85%   Direction: NA
Pressure: 30.11"   Gusts: NA
Location:  37.34°N, 92.91°W
Report Text: KSGF 271352Z 00000KT 10SM CLR M01/M03 A3011 RMK AO2 SLP206 T10061028
Loading
Personal Weather Stations






























Interactive Weather Map New forecast layout! Learn more

10-Day Weather Forecast

Advertisements
Track Severe Weather on mobile